Hartford, WI (53027)

3:21 AM CDT on August 29, 2015 (GMT -0500)
CW2092 | | Change Station
CLOSE
Current Station
Personal Weather Station
Location: Hartford, WI
Elevation: 1012 ft
Nearby Weather Stations

Elev 1012 ft 43.32 °N, 88.37 °W | Updated 1 minute ago

Rain
Rain
57.6 °F
Feels Like 57.6 °F
N
0.0
Wind Variable Wind from SW
Gusts 0.0 mph

Today
High -- | Low -- °F
--% Chance of Precip.
Yesterday
High -- | Low -- °F
Precip. -- in
6:13 AM 7:34 PM
Full, 100% visible
Pressure 30.07 in
Visibility 5.0 miles
Clouds Overcast 300 ft
Dew Point 57 °F
Humidity 99%
Rainfall 0.55 in
Snow Depth Not available.
UV 0 out of 12
Pollen 5.60 out of 12
Air Quality Not available.
Flu Activity Not available.
METAR KETB 290755Z AUTO 05005KT 5SM -RA OVC003 13/12 A3007 RMK AO2 P0012
Pressure 30.07 in
Visibility 5.0 miles
Clouds Overcast 300 ft
Dew Point 57 °F
Humidity 99%
Rainfall 0.55 in
Snow Depth Not available.
UV 0 out of 12
Pollen 5.60 out of 12
Air Quality Not available.
Flu Activity Not available.
METAR KETB 290755Z AUTO 05005KT 5SM -RA OVC003 13/12 A3007 RMK AO2 P0012

10-Day Weather Forecast

×

Almanac

Astronomy

Aug. 29, 2015 Rise Set
Actual Time
Civil Twilight
Nautical Twilight
Astronomical Twilight
Moon
Length of Visible Light
Length of Day
Tomorrow will be .
, % of the Moon is Illuminated

Today's Extremes

State Highs State Lows

Community

WunderPhotos

Upload Photos

1,850,634 photos uploaded!

WunderBlogs® & News

Nearby

Air Quality

  Air Quality AQ Index Pollutant
Not available.

Snow Depth

Station Depth Elevation

Earthquake Activity

City Distance Mag. Time & Date
Minimum magnitude displayed is 2.5.

Coastal Water Temperatures

Place Temperature

Stations

Nearby Weather Stations

Station Location Temp. Windchill Dew Point Humidity Wind Precip. Elev Updated Type